createdAt,value
2023-05-12T00:00:13.283Z,100521.84
2023-05-12T00:02:44.949Z,100521.50
2023-05-12T00:05:12.309Z,100528.25
2023-05-12T00:07:42.495Z,100531.75
2023-05-12T00:10:10.171Z,100530.84
2023-05-12T00:12:37.998Z,100530.06
2023-05-12T00:15:05.994Z,100529.03
2023-05-12T00:17:33.641Z,100530.50
2023-05-12T00:20:01.423Z,100523.09
2023-05-12T00:22:28.998Z,100519.56
2023-05-12T00:24:56.455Z,100514.56
2023-05-12T00:27:23.867Z,100520.03
2023-05-12T00:29:51.259Z,100515.81
2023-05-12T00:32:18.653Z,100513.19
2023-05-12T00:34:46.131Z,100514.22
2023-05-12T00:37:13.554Z,100514.34
2023-05-12T00:39:41.115Z,100511.28
2023-05-12T00:42:08.691Z,100507.41
2023-05-12T00:44:36.653Z,100511.72
2023-05-12T00:47:05.282Z,100511.03
2023-05-12T00:49:33.062Z,100507.06
2023-05-12T00:52:02.483Z,100505.69
2023-05-12T00:54:30.479Z,100508.31
2023-05-12T00:56:58.213Z,100500.81
2023-05-12T00:59:25.630Z,100500.47
2023-05-12T01:01:53.268Z,100498.31
2023-05-12T01:04:20.904Z,100498.97
2023-05-12T01:06:59.977Z,100496.94
2023-05-12T01:09:27.532Z,100498.28
2023-05-12T01:11:56.045Z,100503.88
2023-05-12T01:14:23.762Z,100502.75
2023-05-12T01:16:53.977Z,100498.09
2023-05-12T01:19:48.603Z,100500.34
2023-05-12T01:22:17.622Z,100502.53
2023-05-12T01:24:49.593Z,100502.53
2023-05-12T01:27:17.936Z,100500.44
2023-05-12T01:29:47.299Z,100511.16
2023-05-12T01:32:17.839Z,100506.94
2023-05-12T01:34:45.354Z,100503.09
2023-05-12T01:37:12.866Z,100511.06
2023-05-12T01:39:41.695Z,100506.50
2023-05-12T01:42:13.377Z,100507.50
2023-05-12T01:44:59.305Z,100515.59
2023-05-12T01:47:27.893Z,100524.81
2023-05-12T01:50:03.366Z,100513.44
2023-05-12T01:52:30.796Z,100521.63
2023-05-12T01:54:58.266Z,100524.47
2023-05-12T01:57:27.213Z,100516.84
2023-05-12T02:00:00.089Z,100513.56
2023-05-12T02:02:28.383Z,100515.81
2023-05-12T02:04:55.898Z,100514.34
2023-05-12T02:07:23.256Z,100521.28
2023-05-12T02:09:51.154Z,100518.78
2023-05-12T02:12:19.107Z,100515.69
2023-05-12T02:14:49.003Z,100507.84
2023-05-12T02:17:17.282Z,100515.81
2023-05-12T02:19:45.520Z,100519.13
2023-05-12T02:22:15.356Z,100515.56
2023-05-12T02:24:43.673Z,100517.88
2023-05-12T02:27:11.179Z,100512.97
2023-05-12T02:29:40.681Z,100511.13
2023-05-12T02:32:09.134Z,100515.13
2023-05-12T02:34:36.607Z,100514.09
2023-05-12T02:37:04.243Z,100513.78
2023-05-12T02:39:31.893Z,100507.50
2023-05-12T02:41:59.301Z,100513.53
2023-05-12T02:44:27.187Z,100507.97
2023-05-12T02:46:54.588Z,100506.34
2023-05-12T02:49:23.360Z,100500.09
2023-05-12T02:51:50.974Z,100507.03
2023-05-12T02:54:18.391Z,100513.66
2023-05-12T02:56:48.556Z,100509.19
2023-05-12T02:59:16.046Z,100513.78
2023-05-12T03:01:43.542Z,100509.91
2023-05-12T03:04:10.942Z,100510.34
2023-05-12T03:06:38.430Z,100510.47
2023-05-12T03:09:05.842Z,100505.91
2023-05-12T03:11:33.234Z,100502.59
2023-05-12T03:14:01.741Z,100493.97
2023-05-12T03:16:29.347Z,100493.03
2023-05-12T03:18:56.813Z,100495.44
2023-05-12T03:21:24.629Z,100496.91
2023-05-12T03:23:52.769Z,100500.22
2023-05-12T03:26:20.133Z,100499.66
2023-05-12T03:28:47.510Z,100493.75
2023-05-12T03:31:14.967Z,100492.91
2023-05-12T03:33:42.428Z,100497.84
2023-05-12T03:36:10.353Z,100495.69
2023-05-12T03:38:38.059Z,100495.19
2023-05-12T03:41:06.928Z,100497.03
2023-05-12T03:43:36.030Z,100495.56
2023-05-12T03:46:04.944Z,100494.09
2023-05-12T03:48:32.423Z,100496.03
2023-05-12T03:51:00.062Z,100502.16
2023-05-12T03:53:31.825Z,100497.63
2023-05-12T03:56:04.252Z,100485.91
2023-05-12T03:58:33.336Z,100482.91
2023-05-12T04:01:01.838Z,100486.13
2023-05-12T04:03:32.764Z,100491.91
2023-05-12T04:06:01.340Z,100488.06
2023-05-12T04:08:29.132Z,100494.88
2023-05-12T04:10:58.157Z,100499.66
2023-05-12T04:13:26.034Z,100492.25
2023-05-12T04:16:00.088Z,100503.16
2023-05-12T04:18:28.418Z,100502.84
2023-05-12T04:20:56.195Z,100500.34
2023-05-12T04:23:24.039Z,100510.25
2023-05-12T04:25:51.700Z,100496.56
2023-05-12T04:28:20.202Z,100508.84
2023-05-12T04:30:48.477Z,100504.97
2023-05-12T04:33:15.791Z,100507.50
2023-05-12T04:35:43.936Z,100507.84
2023-05-12T04:38:13.401Z,100512.38
2023-05-12T04:40:41.660Z,100515.09
2023-05-12T04:45:58.620Z,100513.28
2023-05-12T04:48:29.037Z,100516.03
2023-05-12T04:51:00.571Z,100522.75
2023-05-12T04:53:28.450Z,100518.22
2023-05-12T04:55:56.738Z,100519.13
2023-05-12T04:58:24.881Z,100531.16
2023-05-12T05:00:53.113Z,100529.69
2023-05-12T05:03:20.657Z,100530.47
2023-05-12T05:05:49.107Z,100527.44
2023-05-12T05:08:17.001Z,100524.56
2023-05-12T05:10:44.477Z,100533.34
2023-05-12T05:13:11.969Z,100535.13
2023-05-12T05:15:39.348Z,100530.47
2023-05-12T05:18:07.169Z,100535.41
2023-05-12T05:20:34.766Z,100536.97
2023-05-12T05:23:02.401Z,100541.66
2023-05-12T05:25:29.856Z,100543.38
2023-05-12T05:27:57.981Z,100549.97
2023-05-12T05:30:25.677Z,100548.81
2023-05-12T05:32:53.296Z,100548.25
2023-05-12T05:35:22.162Z,100548.81
2023-05-12T05:37:53.730Z,100549.72
2023-05-12T05:40:22.035Z,100554.28
2023-05-12T05:42:49.430Z,100557.25
2023-05-12T05:45:16.981Z,100557.47
2023-05-12T05:47:44.829Z,100566.00
2023-05-12T05:50:12.785Z,100561.13
2023-05-12T05:52:42.114Z,100555.66
2023-05-12T05:55:10.119Z,100569.41
2023-05-12T05:57:37.899Z,100566.78
2023-05-12T06:00:08.972Z,100567.25
2023-05-12T06:02:45.991Z,100567.16
2023-05-12T06:05:18.092Z,100570.09
2023-05-12T06:07:45.641Z,100566.44
2023-05-12T06:10:13.011Z,100561.56
2023-05-12T06:12:41.197Z,100561.44
2023-05-12T06:15:09.141Z,100564.88
2023-05-12T06:17:36.588Z,100558.72
2023-05-12T06:20:05.337Z,100565.13
2023-05-12T06:22:34.722Z,100566.56
2023-05-12T06:25:02.741Z,100566.78
2023-05-12T06:27:30.223Z,100570.78
2023-05-12T06:29:57.647Z,100574.13
2023-05-12T06:32:26.997Z,100572.53
2023-05-12T06:34:54.450Z,100571.16
2023-05-12T06:37:21.786Z,100577.78
2023-05-12T06:39:49.200Z,100581.66
2023-05-12T06:42:34.697Z,100586.06
2023-05-12T06:45:09.716Z,100582.88
2023-05-12T06:47:37.206Z,100585.06
2023-05-12T06:50:05.242Z,100591.97
2023-05-12T06:52:32.879Z,100599.38
2023-05-12T06:55:00.283Z,100588.78
2023-05-12T06:57:27.858Z,100592.00
2023-05-12T06:59:55.236Z,100592.44
2023-05-12T07:02:22.760Z,100590.28
2023-05-12T07:04:50.195Z,100593.69
2023-05-12T07:07:20.377Z,100591.84
2023-05-12T07:09:47.933Z,100591.28
2023-05-12T07:12:17.083Z,100584.84
2023-05-12T07:14:44.475Z,100592.50
2023-05-12T07:17:11.795Z,100595.97
2023-05-12T07:19:40.213Z,100599.59
2023-05-12T07:22:07.897Z,100592.44
2023-05-12T07:24:35.345Z,100605.19
2023-05-12T07:27:02.862Z,100601.06
2023-05-12T07:29:30.240Z,100600.81
2023-05-12T07:31:57.533Z,100603.91
2023-05-12T07:34:24.909Z,100602.84
2023-05-12T07:36:52.318Z,100609.22
2023-05-12T07:39:23.693Z,100601.47
2023-05-12T07:41:52.871Z,100603.53
2023-05-12T07:44:20.297Z,100609.66
2023-05-12T07:46:47.654Z,100612.94
2023-05-12T07:49:17.360Z,100608.22
2023-05-12T07:51:44.695Z,100605.00
2023-05-12T07:54:12.255Z,100599.69
2023-05-12T07:56:39.755Z,100598.03
2023-05-12T07:59:07.365Z,100598.75
2023-05-12T08:01:35.007Z,100597.94
2023-05-12T08:04:02.454Z,100608.25
2023-05-12T08:06:29.908Z,100609.59
2023-05-12T08:08:58.450Z,100611.97
2023-05-12T08:11:27.651Z,100605.53
2023-05-12T08:13:55.007Z,100612.16
2023-05-12T08:16:23.023Z,100608.56
2023-05-12T08:18:50.539Z,100610.09
2023-05-12T08:21:20.406Z,100614.41
2023-05-12T08:23:47.739Z,100615.72
2023-05-12T08:26:15.055Z,100623.16
2023-05-12T08:28:42.496Z,100624.75
2023-05-12T08:31:10.047Z,100626.34
2023-05-12T08:33:37.537Z,100622.09
2023-05-12T08:36:05.458Z,100627.00
2023-05-12T08:38:34.399Z,100629.75
2023-05-12T08:41:12.622Z,100628.28
2023-05-12T08:43:52.322Z,100626.06
2023-05-12T08:46:21.050Z,100628.47
2023-05-12T08:48:50.778Z,100637.28
2023-05-12T08:51:20.501Z,100628.19
2023-05-12T08:53:50.141Z,100633.75
2023-05-12T08:58:51.548Z,100632.91
2023-05-12T09:01:19.051Z,100632.88
2023-05-12T09:03:46.687Z,100630.06
2023-05-12T09:06:14.535Z,100636.75
2023-05-12T09:08:42.410Z,100642.97
2023-05-12T09:11:12.277Z,100640.38
2023-05-12T09:13:50.729Z,100641.25
2023-05-12T09:16:24.152Z,100647.69
2023-05-12T09:18:57.097Z,100642.59
2023-05-12T09:21:25.227Z,100638.03
2023-05-12T09:24:00.665Z,100639.13
2023-05-12T09:26:28.936Z,100632.03
2023-05-12T09:29:08.580Z,100622.63
2023-05-12T09:31:38.865Z,100635.22
2023-05-12T09:34:10.112Z,100628.00
2023-05-12T09:36:37.593Z,100630.81
2023-05-12T09:39:07.523Z,100628.13
2023-05-12T09:41:36.502Z,100634.72
2023-05-12T09:44:04.801Z,100633.06
2023-05-12T09:46:35.024Z,100631.47
2023-05-12T09:49:06.057Z,100630.50
2023-05-12T09:51:36.369Z,100629.47
2023-05-12T09:54:05.729Z,100633.31
2023-05-12T09:56:37.752Z,100633.16
2023-05-12T09:59:05.659Z,100637.88
2023-05-12T10:01:33.409Z,100629.22
2023-05-12T10:04:04.164Z,100627.25
2023-05-12T10:06:40.676Z,100625.59
2023-05-12T10:09:25.771Z,100629.72
2023-05-12T10:11:54.076Z,100632.38
2023-05-12T10:14:22.939Z,100633.41
2023-05-12T10:16:52.035Z,100630.47
2023-05-12T10:19:20.581Z,100627.78
2023-05-12T10:21:48.838Z,100626.97
2023-05-12T10:24:19.367Z,100628.16
2023-05-12T10:26:47.491Z,100625.34
2023-05-12T10:29:15.482Z,100631.31
2023-05-12T10:31:45.350Z,100636.94
2023-05-12T10:34:21.636Z,100630.66
2023-05-12T10:36:54.051Z,100648.59
2023-05-12T10:39:29.366Z,100637.38
2023-05-12T10:42:09.168Z,100641.63
2023-05-12T10:44:50.964Z,100653.56
2023-05-12T10:47:18.977Z,100660.28
2023-05-12T10:49:46.519Z,100651.78
2023-05-12T10:52:20.174Z,100649.47
2023-05-12T10:54:47.727Z,100648.97
2023-05-12T10:57:20.677Z,100653.44
2023-05-12T10:59:58.770Z,100661.41
2023-05-12T11:02:36.002Z,100658.50
2023-05-12T11:05:11.166Z,100663.25
2023-05-12T11:07:39.781Z,100661.50
2023-05-12T11:10:10.490Z,100659.63
2023-05-12T11:12:38.188Z,100663.47
2023-05-12T11:15:07.080Z,100663.31
2023-05-12T11:17:39.916Z,100668.53
2023-05-12T11:20:09.844Z,100665.97
2023-05-12T11:22:37.410Z,100664.13
2023-05-12T11:25:12.064Z,100659.34
2023-05-12T11:27:45.411Z,100653.22
2023-05-12T11:30:13.603Z,100650.81
2023-05-12T11:32:41.376Z,100654.72
2023-05-12T11:35:17.773Z,100656.47
2023-05-12T11:37:46.368Z,100659.13
2023-05-12T11:40:21.824Z,100653.50
2023-05-12T11:42:52.667Z,100655.00
2023-05-12T11:45:26.207Z,100659.78
2023-05-12T11:48:04.997Z,100649.59
2023-05-12T11:50:32.513Z,100648.19
2023-05-12T11:52:59.916Z,100644.72
2023-05-12T11:55:27.464Z,100648.09
2023-05-12T11:58:00.981Z,100646.53
2023-05-12T12:00:31.085Z,100649.75
2023-05-12T12:03:15.060Z,100649.50
2023-05-12T12:05:45.387Z,100640.84
2023-05-12T12:08:15.608Z,100644.66
2023-05-12T12:10:46.412Z,100644.78
2023-05-12T12:13:20.924Z,100637.88
2023-05-12T12:15:51.224Z,100638.50
2023-05-12T12:18:19.203Z,100640.47
2023-05-12T12:20:47.377Z,100645.34
2023-05-12T12:23:15.038Z,100638.28
2023-05-12T12:25:43.588Z,100637.97
2023-05-12T12:28:11.069Z,100635.66
2023-05-12T12:30:38.828Z,100634.63
2023-05-12T12:33:06.251Z,100635.91
2023-05-12T12:35:33.656Z,100634.72
2023-05-12T12:38:01.018Z,100627.44
2023-05-12T12:40:28.516Z,100643.25
2023-05-12T12:42:56.077Z,100641.28
2023-05-12T12:45:23.648Z,100646.47
2023-05-12T12:47:54.966Z,100640.00
2023-05-12T12:50:25.046Z,100630.47
2023-05-12T12:52:53.194Z,100628.22
2023-05-12T12:55:21.904Z,100637.59
2023-05-12T12:57:49.444Z,100632.75
2023-05-12T13:00:17.375Z,100638.09
2023-05-12T13:02:45.176Z,100636.97
2023-05-12T13:05:12.713Z,100649.41
2023-05-12T13:07:40.028Z,100639.78
2023-05-12T13:10:08.119Z,100642.75
2023-05-12T13:12:36.080Z,100637.75
2023-05-12T13:15:03.948Z,100634.28
2023-05-12T13:17:33.711Z,100631.91
2023-05-12T13:20:01.164Z,100643.38
2023-05-12T13:22:29.100Z,100634.88
2023-05-12T13:24:56.524Z,100644.19
2023-05-12T13:27:23.890Z,100650.34
2023-05-12T13:29:51.972Z,100649.50
2023-05-12T13:32:20.721Z,100647.47
2023-05-12T13:34:48.146Z,100646.88
2023-05-12T13:37:15.761Z,100642.50
2023-05-12T13:39:43.340Z,100646.56
2023-05-12T13:42:10.827Z,100653.31
2023-05-12T13:44:38.240Z,100641.38
2023-05-12T13:47:08.147Z,100643.94
2023-05-12T13:49:36.446Z,100647.03
2023-05-12T13:52:04.203Z,100649.44
2023-05-12T13:54:32.167Z,100641.94
2023-05-12T13:56:59.728Z,100648.38
2023-05-12T13:59:27.057Z,100640.00
2023-05-12T14:01:54.870Z,100648.16
2023-05-12T14:04:22.351Z,100644.78
2023-05-12T14:06:49.954Z,100645.34
2023-05-12T14:09:17.518Z,100653.22
2023-05-12T14:11:44.854Z,100650.97
2023-05-12T14:14:12.694Z,100650.03
2023-05-12T14:16:40.149Z,100651.75
2023-05-12T14:19:08.305Z,100656.88
2023-05-12T14:21:35.927Z,100653.25
2023-05-12T14:24:03.653Z,100651.47
2023-05-12T14:26:31.063Z,100649.25
2023-05-12T14:28:58.442Z,100649.78
2023-05-12T14:31:25.904Z,100638.44
2023-05-12T14:33:53.358Z,100649.66
2023-05-12T14:36:20.866Z,100650.13
2023-05-12T14:38:49.223Z,100651.38
2023-05-12T14:41:16.579Z,100647.88
2023-05-12T14:43:43.941Z,100646.06
2023-05-12T14:46:11.311Z,100643.44
2023-05-12T14:48:38.762Z,100646.34
2023-05-12T14:51:06.229Z,100644.72
2023-05-12T14:53:35.606Z,100637.69
2023-05-12T14:56:02.958Z,100618.84
2023-05-12T14:58:30.886Z,100631.19
2023-05-12T15:00:59.369Z,100625.03
2023-05-12T15:03:26.830Z,100638.22
2023-05-12T15:06:05.517Z,100629.94
2023-05-12T15:08:34.365Z,100628.72
2023-05-12T15:11:01.823Z,100627.75
2023-05-12T15:13:29.179Z,100628.00
2023-05-12T15:15:57.095Z,100624.38
2023-05-12T15:18:24.860Z,100622.91
2023-05-12T15:20:52.490Z,100629.28
2023-05-12T15:23:19.882Z,100628.41
2023-05-12T15:25:50.246Z,100631.13
2023-05-12T15:28:17.669Z,100626.63
2023-05-12T15:30:45.524Z,100640.97
2023-05-12T15:33:13.047Z,100641.41
2023-05-12T15:35:40.759Z,100640.16
2023-05-12T15:38:08.380Z,100632.69
2023-05-12T15:40:37.707Z,100641.19
2023-05-12T15:43:05.129Z,100638.66
2023-05-12T15:45:32.669Z,100637.59
2023-05-12T15:48:00.186Z,100640.94
2023-05-12T15:50:27.715Z,100650.06
2023-05-12T15:52:55.068Z,100653.28
2023-05-12T15:55:22.733Z,100645.97
2023-05-12T15:57:53.746Z,100652.13
2023-05-12T16:00:22.610Z,100635.59
2023-05-12T16:02:50.348Z,100641.03
2023-05-12T16:05:17.992Z,100630.50
2023-05-12T16:07:47.310Z,100633.72
2023-05-12T16:10:14.827Z,100626.50
2023-05-12T16:12:42.267Z,100630.03
2023-05-12T16:15:11.179Z,100639.06
2023-05-12T16:17:38.652Z,100634.38
2023-05-12T16:20:07.817Z,100636.28
2023-05-12T16:22:35.146Z,100634.94
2023-05-12T16:25:02.519Z,100641.50
2023-05-12T16:27:32.012Z,100641.31
2023-05-12T16:29:59.450Z,100644.91
2023-05-12T16:32:26.880Z,100639.31
2023-05-12T16:34:54.235Z,100647.13
2023-05-12T16:37:22.856Z,100644.09
2023-05-12T16:39:50.233Z,100640.91
2023-05-12T16:42:17.649Z,100648.13
2023-05-12T16:44:45.052Z,100639.53
2023-05-12T16:47:12.492Z,100640.59
2023-05-12T16:49:39.851Z,100642.31
2023-05-12T16:52:07.359Z,100641.00
2023-05-12T16:54:34.846Z,100644.31
2023-05-12T16:57:03.141Z,100645.53
2023-05-12T16:59:32.464Z,100652.31
2023-05-12T17:02:00.286Z,100653.94
2023-05-12T17:04:29.889Z,100653.69
2023-05-12T17:06:58.009Z,100662.34
2023-05-12T17:09:25.365Z,100653.50
2023-05-12T17:11:52.960Z,100659.28
2023-05-12T17:14:20.277Z,100663.97
2023-05-12T17:16:47.704Z,100664.84
2023-05-12T17:19:18.858Z,100666.59
2023-05-12T17:21:46.381Z,100681.47
2023-05-12T17:24:14.404Z,100697.09
2023-05-12T17:26:42.288Z,100703.91
2023-05-12T17:29:09.685Z,100714.06
2023-05-12T17:31:40.765Z,100704.47
2023-05-12T17:34:08.205Z,100707.84
2023-05-12T17:36:35.697Z,100710.78
2023-05-12T17:39:03.201Z,100714.50
2023-05-12T17:41:30.625Z,100715.66
2023-05-12T17:43:58.003Z,100717.31
2023-05-12T17:46:25.442Z,100721.44
2023-05-12T17:48:53.138Z,100721.88
2023-05-12T17:51:20.553Z,100724.19
2023-05-12T17:53:47.945Z,100725.47
2023-05-12T17:56:15.319Z,100729.13
2023-05-12T17:58:42.739Z,100728.44
2023-05-12T18:01:10.200Z,100739.31
2023-05-12T18:03:38.048Z,100729.59
2023-05-12T18:06:05.894Z,100733.59
2023-05-12T18:08:33.299Z,100741.63
2023-05-12T18:11:01.305Z,100747.72
2023-05-12T18:13:28.688Z,100744.00
2023-05-12T18:15:56.476Z,100749.13
2023-05-12T18:18:23.839Z,100750.00
2023-05-12T18:20:51.336Z,100750.38
2023-05-12T18:23:18.652Z,100758.59
2023-05-12T18:25:46.963Z,100761.16
2023-05-12T18:28:15.094Z,100760.38
2023-05-12T18:30:42.550Z,100763.06
2023-05-12T18:33:10.048Z,100767.28
2023-05-12T18:35:37.568Z,100774.44
2023-05-12T18:38:04.945Z,100780.19
2023-05-12T18:40:33.744Z,100774.88
2023-05-12T18:43:01.142Z,100780.34
2023-05-12T18:45:28.526Z,100780.47
2023-05-12T18:47:56.017Z,100783.06
2023-05-12T18:50:23.697Z,100787.63
2023-05-12T18:52:51.034Z,100786.75
2023-05-12T18:55:18.556Z,100795.09
2023-05-12T18:57:45.976Z,100795.78
2023-05-12T19:00:13.788Z,100794.38
2023-05-12T19:02:42.438Z,100803.38
2023-05-12T19:05:10.026Z,100798.72
2023-05-12T19:07:37.430Z,100816.56
2023-05-12T19:10:05.379Z,100814.84
2023-05-12T19:12:32.820Z,100820.13
2023-05-12T19:15:00.714Z,100825.28
2023-05-12T19:17:28.332Z,100829.97
2023-05-12T19:19:55.849Z,100836.59
2023-05-12T19:22:24.822Z,100837.28
2023-05-12T19:24:52.453Z,100843.50
2023-05-12T19:27:19.884Z,100839.94
2023-05-12T19:29:47.328Z,100854.13
2023-05-12T19:32:15.002Z,100856.00
2023-05-12T19:34:42.554Z,100853.50
2023-05-12T19:37:09.978Z,100855.66
2023-05-12T19:39:37.383Z,100858.59
2023-05-12T19:42:05.017Z,100860.78
2023-05-12T19:44:32.366Z,100863.63
2023-05-12T19:47:04.622Z,100862.09
2023-05-12T19:49:36.137Z,100877.53
2023-05-12T19:52:04.641Z,100866.56
2023-05-12T19:54:32.344Z,100865.44
2023-05-12T19:56:59.767Z,100867.13
2023-05-12T19:59:27.199Z,100872.81
2023-05-12T20:01:55.305Z,100881.03
2023-05-12T20:04:23.552Z,100884.56
2023-05-12T20:06:51.521Z,100886.19
2023-05-12T20:09:20.601Z,100892.00
2023-05-12T20:11:48.493Z,100892.91
2023-05-12T20:14:18.796Z,100892.91
2023-05-12T20:16:46.184Z,100895.13
2023-05-12T20:19:14.125Z,100899.47
2023-05-12T20:21:41.589Z,100897.22
2023-05-12T20:24:09.512Z,100890.16
2023-05-12T20:26:40.740Z,100893.16
2023-05-12T20:29:08.297Z,100896.44
2023-05-12T20:31:35.851Z,100891.56
2023-05-12T20:34:03.424Z,100892.25
2023-05-12T20:36:32.360Z,100894.34
2023-05-12T20:39:00.272Z,100891.38
2023-05-12T20:41:27.960Z,100902.94
2023-05-12T20:43:55.387Z,100899.53
2023-05-12T20:46:23.141Z,100905.59
2023-05-12T20:48:50.657Z,100905.00
2023-05-12T20:51:18.069Z,100907.41
2023-05-12T20:53:46.130Z,100905.34
2023-05-12T20:56:13.455Z,100905.94
2023-05-12T20:58:41.030Z,100914.28
2023-05-12T21:01:08.366Z,100908.78
2023-05-12T21:03:35.912Z,100908.91
2023-05-12T21:06:05.444Z,100902.53
2023-05-12T21:08:35.577Z,100901.25
2023-05-12T21:11:02.910Z,100905.03
2023-05-12T21:13:30.361Z,100905.09
2023-05-12T21:15:57.934Z,100903.75
2023-05-12T21:18:25.367Z,100899.97
2023-05-12T21:20:52.695Z,100903.75
2023-05-12T21:23:20.130Z,100899.41
2023-05-12T21:25:49.165Z,100896.00
2023-05-12T21:28:16.618Z,100895.06
2023-05-12T21:30:43.981Z,100902.34
2023-05-12T21:33:11.348Z,100900.19
2023-05-12T21:35:38.737Z,100908.75
2023-05-12T21:38:08.476Z,100909.44
2023-05-12T21:40:38.895Z,100908.84
2023-05-12T21:43:06.302Z,100917.06
2023-05-12T21:45:33.689Z,100914.44
2023-05-12T21:48:01.158Z,100920.38
2023-05-12T21:50:28.585Z,100931.75
2023-05-12T21:52:56.114Z,100928.00
2023-05-12T21:55:26.382Z,100932.09
2023-05-12T21:57:53.801Z,100937.00
2023-05-12T22:00:21.598Z,100938.81
2023-05-12T22:02:49.551Z,100940.91
2023-05-12T22:05:17.109Z,100941.91
2023-05-12T22:07:44.616Z,100944.91
2023-05-12T22:10:12.004Z,100944.56
2023-05-12T22:12:39.701Z,100945.94
2023-05-12T22:15:07.694Z,100948.09
2023-05-12T22:17:35.076Z,100946.03
2023-05-12T22:20:02.686Z,100951.25
2023-05-12T22:22:30.045Z,100953.22
2023-05-12T22:24:58.826Z,100951.28
2023-05-12T22:27:26.202Z,100953.47
2023-05-12T22:29:55.084Z,100951.19
2023-05-12T22:32:23.286Z,100947.22
2023-05-12T22:34:53.085Z,100953.25
2023-05-12T22:37:20.950Z,100961.38
2023-05-12T22:39:48.340Z,100955.06
2023-05-12T22:42:15.779Z,100963.06
2023-05-12T22:44:43.167Z,100960.53
2023-05-12T22:47:10.799Z,100965.88
2023-05-12T22:49:38.440Z,100965.44
2023-05-12T22:52:06.110Z,100968.03
2023-05-12T22:54:33.517Z,100971.38
2023-05-12T22:57:01.053Z,100967.97
2023-05-12T22:59:31.425Z,100971.28
2023-05-12T23:01:58.842Z,100975.03
2023-05-12T23:04:26.265Z,100968.03
2023-05-12T23:06:53.659Z,100968.50
2023-05-12T23:09:21.186Z,100968.63
2023-05-12T23:11:48.571Z,100961.69
2023-05-12T23:14:15.968Z,100964.31
2023-05-12T23:16:43.565Z,100963.06
2023-05-12T23:19:11.056Z,100972.19
2023-05-12T23:21:38.583Z,100966.81
2023-05-12T23:24:06.415Z,100968.06
2023-05-12T23:26:33.764Z,100966.94
2023-05-12T23:29:01.251Z,100970.94
2023-05-12T23:31:28.737Z,100967.53
2023-05-12T23:33:58.742Z,100965.81
2023-05-12T23:36:26.139Z,100965.81
2023-05-12T23:38:54.562Z,100968.41
2023-05-12T23:41:25.670Z,100967.84
2023-05-12T23:43:53.017Z,100969.91
2023-05-12T23:46:20.420Z,100975.59
2023-05-12T23:48:47.816Z,100972.84
2023-05-12T23:51:15.144Z,100972.81
2023-05-12T23:53:42.446Z,100962.66
2023-05-12T23:56:10.106Z,100965.09
2023-05-12T23:58:37.419Z,100960.84
